createdAt,value
2023-04-15T00:01:19.379Z,96694.44
2023-04-15T00:03:47.815Z,96702.09
2023-04-15T00:06:16.790Z,96688.03
2023-04-15T00:08:44.190Z,96685.53
2023-04-15T00:11:12.509Z,96684.53
2023-04-15T00:13:40.071Z,96690.72
2023-04-15T00:16:09.075Z,96692.97
2023-04-15T00:18:37.422Z,96691.88
2023-04-15T00:21:05.439Z,96687.34
2023-04-15T00:23:34.217Z,96691.69
2023-04-15T00:26:01.593Z,96688.19
2023-04-15T00:28:29.517Z,96701.25
2023-04-15T00:30:57.881Z,96688.59
2023-04-15T00:33:25.418Z,96684.81
2023-04-15T00:35:53.662Z,96695.75
2023-04-15T00:38:21.060Z,96689.78
2023-04-15T00:40:50.162Z,96690.44
2023-04-15T00:43:17.625Z,96688.13
2023-04-15T00:45:47.104Z,96687.06
2023-04-15T00:48:15.477Z,96680.66
2023-04-15T00:50:42.875Z,96683.13
2023-04-15T00:53:10.333Z,96686.38
2023-04-15T00:55:39.194Z,96686.81
2023-04-15T00:58:07.950Z,96689.13
2023-04-15T01:00:35.913Z,96696.78
2023-04-15T01:03:03.596Z,96688.91
2023-04-15T01:05:31.887Z,96689.56
2023-04-15T01:07:59.495Z,96694.69
2023-04-15T01:10:27.334Z,96694.03
2023-04-15T01:12:54.948Z,96692.00
2023-04-15T01:15:25.038Z,96698.44
2023-04-15T01:17:52.818Z,96687.28
2023-04-15T01:20:20.584Z,96691.16
2023-04-15T01:22:48.839Z,96688.66
2023-04-15T01:25:19.432Z,96683.50
2023-04-15T01:27:48.440Z,96687.94
2023-04-15T01:30:17.339Z,96681.50
2023-04-15T01:32:44.709Z,96685.41
2023-04-15T01:35:30.950Z,96686.03
2023-04-15T01:38:02.391Z,96682.34
2023-04-15T01:40:29.945Z,96682.09
2023-04-15T01:43:02.214Z,96680.63
2023-04-15T01:45:31.033Z,96672.31
2023-04-15T01:47:59.780Z,96677.44
2023-04-15T01:50:28.491Z,96679.44
2023-04-15T01:52:57.191Z,96669.91
2023-04-15T01:55:26.143Z,96666.72
2023-04-15T01:57:54.817Z,96669.97
2023-04-15T02:00:24.915Z,96668.72
2023-04-15T02:02:54.609Z,96668.63
2023-04-15T02:05:23.424Z,96673.38
2023-04-15T02:07:52.333Z,96684.88
2023-04-15T02:10:20.961Z,96683.84
2023-04-15T02:12:49.676Z,96682.19
2023-04-15T02:15:18.372Z,96676.38
2023-04-15T02:17:52.670Z,96672.84
2023-04-15T02:20:21.655Z,96674.44
2023-04-15T02:22:50.360Z,96668.19
2023-04-15T02:25:20.193Z,96665.69
2023-04-15T02:27:48.852Z,96668.13
2023-04-15T02:30:19.182Z,96660.16
2023-04-15T02:32:49.021Z,96658.81
2023-04-15T02:35:19.825Z,96662.81
2023-04-15T02:37:48.455Z,96659.50
2023-04-15T02:40:17.635Z,96664.03
2023-04-15T02:42:47.528Z,96664.03
2023-04-15T02:45:20.372Z,96669.59
2023-04-15T02:47:50.806Z,96672.09
2023-04-15T02:50:19.923Z,96667.72
2023-04-15T02:52:48.695Z,96668.75
2023-04-15T02:55:18.015Z,96666.63
2023-04-15T02:57:46.624Z,96675.91
2023-04-15T03:00:16.173Z,96679.38
2023-04-15T03:02:52.433Z,96682.91
2023-04-15T03:05:21.255Z,96686.41
2023-04-15T03:07:53.138Z,96683.09
2023-04-15T03:10:22.532Z,96677.47
2023-04-15T03:12:51.234Z,96684.47
2023-04-15T03:15:23.033Z,96686.53
2023-04-15T03:17:55.601Z,96688.19
2023-04-15T03:20:24.728Z,96682.19
2023-04-15T03:22:53.584Z,96680.97
2023-04-15T03:25:23.893Z,96685.97
2023-04-15T03:27:53.825Z,96679.31
2023-04-15T03:30:22.522Z,96679.50
2023-04-15T03:32:51.604Z,96666.09
2023-04-15T03:35:21.467Z,96673.31
2023-04-15T03:37:50.150Z,96665.44
2023-04-15T03:40:19.025Z,96661.66
2023-04-15T03:42:47.600Z,96666.97
2023-04-15T03:45:16.471Z,96665.09
2023-04-15T03:47:45.222Z,96677.47
2023-04-15T03:50:13.872Z,96669.44
2023-04-15T03:52:44.231Z,96665.75
2023-04-15T03:55:13.327Z,96672.59
2023-04-15T03:57:42.070Z,96671.75
2023-04-15T04:00:11.047Z,96672.59
2023-04-15T04:02:42.655Z,96669.06
2023-04-15T04:05:11.508Z,96668.41
2023-04-15T04:07:40.680Z,96670.25
2023-04-15T04:10:11.295Z,96673.50
2023-04-15T04:12:40.087Z,96672.84
2023-04-15T04:15:09.335Z,96676.47
2023-04-15T04:17:38.090Z,96674.91
2023-04-15T04:20:08.155Z,96676.09
2023-04-15T04:22:38.562Z,96682.19
2023-04-15T04:25:08.576Z,96678.69
2023-04-15T04:27:38.825Z,96675.53
2023-04-15T04:30:08.583Z,96670.19
2023-04-15T04:32:37.292Z,96681.19
2023-04-15T04:35:07.074Z,96684.19
2023-04-15T04:37:35.714Z,96686.25
2023-04-15T04:40:05.193Z,96689.56
2023-04-15T04:42:33.835Z,96688.94
2023-04-15T04:45:04.231Z,96695.28
2023-04-15T04:47:32.862Z,96696.47
2023-04-15T04:50:01.485Z,96690.56
2023-04-15T04:52:30.132Z,96698.13
2023-04-15T04:54:58.687Z,96699.78
2023-04-15T04:57:27.269Z,96704.94
2023-04-15T04:59:55.931Z,96703.09
2023-04-15T05:02:27.414Z,96695.91
2023-04-15T05:04:56.766Z,96702.69
2023-04-15T05:07:25.735Z,96699.56
2023-04-15T05:09:54.278Z,96692.81
2023-04-15T05:12:22.828Z,96697.47
2023-04-15T05:14:51.453Z,96708.63
2023-04-15T05:17:20.071Z,96701.53
2023-04-15T05:19:50.067Z,96708.56
2023-04-15T05:22:18.646Z,96698.88
2023-04-15T05:24:47.229Z,96698.88
2023-04-15T05:27:15.828Z,96703.22
2023-04-15T05:29:44.424Z,96709.03
2023-04-15T05:32:13.014Z,96707.28
2023-04-15T05:34:41.906Z,96709.91
2023-04-15T05:37:11.815Z,96710.53
2023-04-15T05:39:40.459Z,96712.94
2023-04-15T05:42:09.157Z,96713.50
2023-04-15T05:44:37.843Z,96715.94
2023-04-15T05:47:07.877Z,96725.91
2023-04-15T05:49:36.731Z,96719.44
2023-04-15T05:52:05.764Z,96717.84
2023-04-15T05:54:36.494Z,96722.56
2023-04-15T05:57:08.259Z,96726.63
2023-04-15T05:59:36.897Z,96722.41
2023-04-15T06:02:06.312Z,96724.84
2023-04-15T06:04:35.128Z,96728.03
2023-04-15T06:07:04.021Z,96725.31
2023-04-15T06:09:32.694Z,96730.34
2023-04-15T06:12:03.047Z,96732.19
2023-04-15T06:14:35.096Z,96725.50
2023-04-15T06:17:04.758Z,96715.97
2023-04-15T06:19:33.524Z,96720.66
2023-04-15T06:22:02.572Z,96725.38
2023-04-15T06:24:33.029Z,96727.13
2023-04-15T06:27:03.306Z,96730.13
2023-04-15T06:29:31.937Z,96731.81
2023-04-15T06:32:00.622Z,96739.16
2023-04-15T06:34:29.315Z,96733.25
2023-04-15T06:36:57.902Z,96719.41
2023-04-15T06:39:26.973Z,96720.06
2023-04-15T06:41:56.689Z,96720.97
2023-04-15T06:44:26.892Z,96724.91
2023-04-15T06:46:55.613Z,96733.47
2023-04-15T06:49:24.262Z,96729.53
2023-04-15T06:51:52.884Z,96717.94
2023-04-15T06:54:21.762Z,96726.47
2023-04-15T06:56:51.480Z,96722.91
2023-04-15T06:59:20.246Z,96730.19
2023-04-15T07:01:50.644Z,96726.25
2023-04-15T07:04:19.441Z,96729.56
2023-04-15T07:06:48.086Z,96717.75
2023-04-15T07:09:16.781Z,96721.84
2023-04-15T07:11:45.648Z,96719.09
2023-04-15T07:14:14.174Z,96717.97
2023-04-15T07:16:43.052Z,96728.47
2023-04-15T07:19:13.106Z,96728.63
2023-04-15T07:21:42.261Z,96718.81
2023-04-15T07:24:11.097Z,96719.25
2023-04-15T07:26:40.453Z,96719.09
2023-04-15T07:29:09.202Z,96712.19
2023-04-15T07:31:42.826Z,96717.06
2023-04-15T07:34:12.881Z,96711.81
2023-04-15T07:36:41.659Z,96710.72
2023-04-15T07:39:10.457Z,96708.94
2023-04-15T07:41:38.947Z,96704.44
2023-04-15T07:44:07.695Z,96699.81
2023-04-15T07:46:37.288Z,96701.81
2023-04-15T07:49:06.000Z,96698.97
2023-04-15T07:51:35.941Z,96699.53
2023-04-15T07:54:04.545Z,96711.13
2023-04-15T07:56:33.202Z,96706.69
2023-04-15T07:59:06.457Z,96703.28
2023-04-15T08:01:35.676Z,96695.94
2023-04-15T08:04:04.732Z,96698.09
2023-04-15T08:06:34.223Z,96693.34
2023-04-15T08:09:04.555Z,96691.84
2023-04-15T08:11:33.668Z,96680.50
2023-04-15T08:14:02.397Z,96690.78
2023-04-15T08:16:31.105Z,96688.75
2023-04-15T08:19:00.195Z,96685.03
2023-04-15T08:21:30.931Z,96686.19
2023-04-15T08:24:00.321Z,96683.50
2023-04-15T08:26:30.281Z,96686.25
2023-04-15T08:28:58.900Z,96688.44
2023-04-15T08:31:30.002Z,96689.53
2023-04-15T08:33:59.303Z,96683.81
2023-04-15T08:36:28.478Z,96685.72
2023-04-15T08:38:57.116Z,96685.28
2023-04-15T08:41:27.130Z,96681.38
2023-04-15T08:44:01.321Z,96675.38
2023-04-15T08:46:32.108Z,96671.50
2023-04-15T08:49:04.415Z,96677.00
2023-04-15T08:51:33.961Z,96679.03
2023-04-15T08:54:04.018Z,96665.66
2023-04-15T08:56:33.301Z,96675.25
2023-04-15T08:59:04.039Z,96667.66
2023-04-15T09:01:33.352Z,96670.06
2023-04-15T09:04:03.174Z,96674.19
2023-04-15T09:06:31.950Z,96679.06
2023-04-15T09:09:01.237Z,96678.69
2023-04-15T09:11:31.366Z,96681.72
2023-04-15T09:14:00.050Z,96675.50
2023-04-15T09:16:30.056Z,96676.78
2023-04-15T09:18:58.729Z,96675.38
2023-04-15T09:21:27.755Z,96682.66
2023-04-15T09:23:58.104Z,96671.94
2023-04-15T09:26:34.195Z,96678.81
2023-04-15T09:29:06.577Z,96678.28
2023-04-15T09:31:37.050Z,96679.75
2023-04-15T09:34:06.924Z,96682.13
2023-04-15T09:36:53.521Z,96675.66
2023-04-15T09:39:22.509Z,96682.09
2023-04-15T09:42:07.232Z,96676.66
2023-04-15T09:44:36.685Z,96678.56
2023-04-15T09:47:06.703Z,96686.25
2023-04-15T09:49:35.448Z,96682.38
2023-04-15T09:52:06.326Z,96670.22
2023-04-15T09:54:37.091Z,96682.09
2023-04-15T09:57:07.202Z,96678.25
2023-04-15T09:59:36.289Z,96663.88
2023-04-15T10:02:07.492Z,96673.81
2023-04-15T10:04:40.743Z,96676.91
2023-04-15T10:07:10.242Z,96666.84
2023-04-15T10:09:39.542Z,96672.19
2023-04-15T10:12:09.174Z,96678.84
2023-04-15T10:14:40.294Z,96678.84
2023-04-15T10:17:12.298Z,96686.63
2023-04-15T10:19:41.897Z,96677.34
2023-04-15T10:22:10.713Z,96677.44
2023-04-15T10:24:41.009Z,96680.41
2023-04-15T10:27:10.985Z,96682.91
2023-04-15T10:29:40.040Z,96676.13
2023-04-15T10:32:11.380Z,96687.75
2023-04-15T10:34:40.938Z,96685.41
2023-04-15T10:37:11.654Z,96681.06
2023-04-15T10:39:42.946Z,96688.44
2023-04-15T10:42:12.772Z,96685.31
2023-04-15T10:44:43.337Z,96688.03
2023-04-15T10:47:15.490Z,96682.84
2023-04-15T10:49:46.182Z,96685.66
2023-04-15T10:52:16.868Z,96686.22
2023-04-15T10:54:45.713Z,96690.03
2023-04-15T10:57:16.982Z,96686.75
2023-04-15T11:00:11.230Z,96690.31
2023-04-15T11:02:47.014Z,96682.16
2023-04-15T11:05:16.842Z,96691.19
2023-04-15T11:07:53.796Z,96690.38
2023-04-15T11:10:53.237Z,96691.03
2023-04-15T11:13:31.313Z,96695.56
2023-04-15T11:16:03.492Z,96692.09
2023-04-15T11:18:35.729Z,96693.75
2023-04-15T11:21:06.622Z,96699.94
2023-04-15T11:23:38.581Z,96701.22
2023-04-15T11:26:09.860Z,96704.09
2023-04-15T11:28:41.420Z,96706.59
2023-04-15T11:31:12.227Z,96708.47
2023-04-15T11:33:56.554Z,96721.81
2023-04-15T11:36:27.209Z,96716.63
2023-04-15T11:38:56.206Z,96716.56
2023-04-15T11:41:25.107Z,96713.56
2023-04-15T11:43:53.818Z,96725.84
2023-04-15T11:46:30.032Z,96723.19
2023-04-15T11:49:00.353Z,96727.88
2023-04-15T11:51:33.066Z,96729.28
2023-04-15T11:54:00.852Z,96730.69
2023-04-15T11:56:28.330Z,96728.28
2023-04-15T11:58:57.222Z,96725.47
2023-04-15T12:01:31.732Z,96736.34
2023-04-15T12:04:01.561Z,96748.59
2023-04-15T12:06:34.848Z,96754.06
2023-04-15T12:09:09.258Z,96750.72
2023-04-15T12:11:42.046Z,96750.88
2023-04-15T12:14:12.710Z,96758.19
2023-04-15T12:16:48.271Z,96752.81
2023-04-15T12:19:22.691Z,96761.59
2023-04-15T12:21:50.386Z,96763.19
2023-04-15T12:24:21.289Z,96761.53
2023-04-15T12:26:50.375Z,96767.53
2023-04-15T12:29:18.109Z,96772.00
2023-04-15T12:31:51.649Z,96779.38
2023-04-15T12:34:28.407Z,96771.66
2023-04-15T12:36:56.673Z,96786.03
2023-04-15T12:39:24.868Z,96780.06
2023-04-15T12:41:52.782Z,96789.50
2023-04-15T12:44:22.770Z,96791.91
2023-04-15T12:46:51.025Z,96792.06
2023-04-15T12:49:20.997Z,96796.81
2023-04-15T12:51:49.287Z,96808.44
2023-04-15T12:54:17.504Z,96804.75
2023-04-15T12:56:46.094Z,96814.66
2023-04-15T12:59:13.863Z,96833.19
2023-04-15T13:01:41.537Z,96825.59
2023-04-15T13:04:09.538Z,96814.69
2023-04-15T13:06:38.736Z,96829.06
2023-04-15T13:09:06.680Z,96828.09
2023-04-15T13:11:34.480Z,96850.22
2023-04-15T13:14:03.144Z,96845.88
2023-04-15T13:16:31.996Z,96848.50
2023-04-15T13:18:59.883Z,96857.97
2023-04-15T13:21:27.769Z,96865.25
2023-04-15T13:23:56.675Z,96866.31
2023-04-15T13:26:24.154Z,96867.19
2023-04-15T13:28:51.931Z,96877.75
2023-04-15T13:31:19.435Z,96882.97
2023-04-15T13:33:46.911Z,96880.97
2023-04-15T13:36:14.540Z,96887.81
2023-04-15T13:38:42.136Z,96892.56
2023-04-15T13:41:11.229Z,96893.81
2023-04-15T13:43:38.682Z,96910.00
2023-04-15T13:46:06.193Z,96911.66
2023-04-15T13:48:33.822Z,96912.03
2023-04-15T13:51:01.398Z,96909.84
2023-04-15T13:53:37.744Z,96912.97
2023-04-15T13:56:06.438Z,96919.59
2023-04-15T13:58:35.648Z,96922.97
2023-04-15T14:01:05.758Z,96922.03
2023-04-15T14:03:34.978Z,96920.69
2023-04-15T14:06:02.634Z,96924.22
2023-04-15T14:08:30.383Z,96928.56
2023-04-15T14:10:57.936Z,96919.63
2023-04-15T14:13:25.564Z,96925.78
2023-04-15T14:15:54.434Z,96916.31
2023-04-15T14:18:21.996Z,96922.19
2023-04-15T14:20:49.456Z,96916.88
2023-04-15T14:23:16.911Z,96926.97
2023-04-15T14:25:46.682Z,96916.34
2023-04-15T14:28:15.885Z,96923.78
2023-04-15T14:30:43.509Z,96923.91
2023-04-15T14:33:12.637Z,96924.78
2023-04-15T14:35:40.161Z,96924.78
2023-04-15T14:38:10.682Z,96927.41
2023-04-15T14:40:38.346Z,96930.00
2023-04-15T14:43:05.827Z,96928.13
2023-04-15T14:45:33.383Z,96936.50
2023-04-15T14:48:01.559Z,96935.22
2023-04-15T14:50:30.543Z,96948.81
2023-04-15T14:52:58.540Z,96943.50
2023-04-15T14:55:26.111Z,96947.88
2023-04-15T14:57:53.558Z,96945.50
2023-04-15T15:00:21.003Z,96960.75
2023-04-15T15:02:48.533Z,96960.75
2023-04-15T15:05:16.345Z,96962.03
2023-04-15T15:07:45.267Z,96973.28
2023-04-15T15:10:12.882Z,96973.03
2023-04-15T15:12:40.309Z,96981.97
2023-04-15T15:15:25.199Z,96984.22
2023-04-15T15:17:56.370Z,96981.16
2023-04-15T15:20:24.453Z,96979.56
2023-04-15T15:22:53.380Z,96986.91
2023-04-15T15:25:21.017Z,96993.56
2023-04-15T15:27:48.818Z,96990.66
2023-04-15T15:30:16.214Z,96993.03
2023-04-15T15:32:43.900Z,96987.03
2023-04-15T15:35:11.440Z,96996.34
2023-04-15T15:37:38.962Z,97008.28
2023-04-15T15:40:09.070Z,97010.38
2023-04-15T15:42:36.457Z,97010.34
2023-04-15T15:45:04.815Z,97019.78
2023-04-15T15:47:32.681Z,97015.78
2023-04-15T15:50:02.030Z,97022.81
2023-04-15T15:52:30.786Z,97029.84
2023-04-15T15:55:04.418Z,97036.34
2023-04-15T15:57:36.715Z,97042.50
2023-04-15T16:00:11.770Z,97043.09
2023-04-15T16:03:05.061Z,97047.47
2023-04-15T16:05:27.959Z,97052.53
2023-04-15T16:07:55.513Z,97059.84
2023-04-15T16:10:23.081Z,97054.13
2023-04-15T16:12:52.001Z,97061.22
2023-04-15T16:15:19.659Z,97068.38
2023-04-15T16:17:47.059Z,97066.31
2023-04-15T16:20:14.477Z,97078.56
2023-04-15T16:22:42.043Z,97073.88
2023-04-15T16:25:09.961Z,97080.19
2023-04-15T16:27:50.233Z,97081.69
2023-04-15T16:30:27.258Z,97092.78
2023-04-15T16:32:54.980Z,97094.78
2023-04-15T16:35:22.543Z,97101.47
2023-04-15T16:37:50.415Z,97109.81
2023-04-15T16:40:18.070Z,97111.13
2023-04-15T16:42:45.593Z,97118.06
2023-04-15T16:45:13.053Z,97123.09
2023-04-15T16:47:41.933Z,97127.72
2023-04-15T16:50:10.797Z,97135.22
2023-04-15T16:52:38.296Z,97146.38
2023-04-15T16:55:06.367Z,97149.72
2023-04-15T16:57:50.653Z,97143.72
2023-04-15T17:00:21.453Z,97163.09
2023-04-15T17:02:50.589Z,97158.75
2023-04-15T17:05:18.590Z,97165.63
2023-04-15T17:07:46.355Z,97167.06
2023-04-15T17:10:14.043Z,97163.50
2023-04-15T17:12:41.520Z,97167.06
2023-04-15T17:15:09.888Z,97169.56
2023-04-15T17:17:37.996Z,97157.34
2023-04-15T17:20:07.982Z,97171.06
2023-04-15T17:22:36.003Z,97171.72
2023-04-15T17:25:04.671Z,97179.81
2023-04-15T17:27:38.548Z,97177.13
2023-04-15T17:30:13.356Z,97186.09
2023-04-15T17:33:01.604Z,97183.38
2023-04-15T17:35:50.577Z,97197.75
2023-04-15T17:38:38.004Z,97197.34
2023-04-15T17:41:25.411Z,97205.47
2023-04-15T17:44:12.819Z,97206.91
2023-04-15T17:47:00.445Z,97206.72
2023-04-15T17:49:47.845Z,97210.44
2023-04-15T17:52:36.653Z,97217.50
2023-04-15T17:55:24.331Z,97224.56
2023-04-15T17:58:11.921Z,97218.75
2023-04-15T18:00:59.330Z,97218.97
2023-04-15T18:03:46.874Z,97220.84
2023-04-15T18:06:34.552Z,97227.91
2023-04-15T18:09:23.283Z,97237.63
2023-04-15T18:12:10.831Z,97241.63
2023-04-15T18:14:58.259Z,97242.41
2023-04-15T18:17:46.015Z,97256.09
2023-04-15T18:20:15.909Z,97256.53
2023-04-15T18:22:45.898Z,97251.69
2023-04-15T18:25:14.776Z,97262.69
2023-04-15T18:27:42.516Z,97270.63
2023-04-15T18:30:11.659Z,97254.19
2023-04-15T18:32:39.344Z,97263.97
2023-04-15T18:35:07.528Z,97272.44
2023-04-15T18:37:35.316Z,97274.09
2023-04-15T18:40:02.737Z,97282.19
2023-04-15T18:42:31.658Z,97289.47
2023-04-15T18:44:58.956Z,97298.78
2023-04-15T18:47:27.572Z,97285.91
2023-04-15T18:49:55.084Z,97297.34
2023-04-15T18:52:22.641Z,97305.69
2023-04-15T18:54:50.054Z,97304.41
2023-04-15T18:57:23.645Z,97318.75
2023-04-15T18:59:59.927Z,97318.31
2023-04-15T19:02:27.613Z,97326.84
2023-04-15T19:04:55.252Z,97323.97
2023-04-15T19:07:23.182Z,97332.06
2023-04-15T19:09:50.637Z,97333.53
2023-04-15T19:12:18.298Z,97338.91
2023-04-15T19:14:45.969Z,97343.47
2023-04-15T19:17:14.881Z,97346.78
2023-04-15T19:19:42.407Z,97343.44
2023-04-15T19:22:09.976Z,97339.25
2023-04-15T19:24:37.391Z,97353.19
2023-04-15T19:27:04.870Z,97351.09
2023-04-15T19:29:33.177Z,97357.97
2023-04-15T19:32:00.878Z,97361.91
2023-04-15T19:34:29.669Z,97363.34
2023-04-15T19:36:56.867Z,97362.53
2023-04-15T19:39:24.344Z,97362.75
2023-04-15T19:41:55.172Z,97368.34
2023-04-15T19:44:22.840Z,97361.66
2023-04-15T19:46:52.788Z,97373.63
2023-04-15T19:49:20.390Z,97372.22
2023-04-15T19:51:52.168Z,97367.81
2023-04-15T19:54:19.549Z,97368.84
2023-04-15T19:56:46.894Z,97365.28
2023-04-15T19:59:14.303Z,97366.53
2023-04-15T20:01:42.342Z,97368.59
2023-04-15T20:04:10.496Z,97367.94
2023-04-15T20:06:37.976Z,97365.66
2023-04-15T20:09:07.711Z,97369.38
2023-04-15T20:12:44.910Z,97367.91
2023-04-15T20:14:25.137Z,97378.31
2023-04-15T20:16:52.669Z,97366.06
2023-04-15T20:19:20.089Z,97366.84
2023-04-15T20:21:47.583Z,97360.38
2023-04-15T20:24:16.469Z,97363.28
2023-04-15T20:26:43.788Z,97361.81
2023-04-15T20:29:11.356Z,97358.88
2023-04-15T20:31:38.924Z,97358.91
2023-04-15T20:34:06.435Z,97364.97
2023-04-15T20:36:34.307Z,97365.16
2023-04-15T20:39:01.766Z,97371.56
2023-04-15T20:41:30.563Z,97369.72
2023-04-15T20:43:57.832Z,97369.91
2023-04-15T20:46:27.309Z,97373.44
2023-04-15T20:48:55.670Z,97378.22
2023-04-15T20:51:23.075Z,97376.38
2023-04-15T20:53:50.519Z,97383.66
2023-04-15T20:56:17.897Z,97384.66
2023-04-15T20:58:46.686Z,97393.22
2023-04-15T21:01:14.041Z,97386.56
2023-04-15T21:03:41.699Z,97392.22
2023-04-15T21:06:09.295Z,97394.91
2023-04-15T21:08:36.678Z,97391.16
2023-04-15T21:11:04.136Z,97393.84
2023-04-15T21:13:31.669Z,97395.75
2023-04-15T21:16:00.604Z,97406.31
2023-04-15T21:18:28.111Z,97405.47
2023-04-15T21:20:59.172Z,97407.41
2023-04-15T21:23:28.766Z,97406.91
2023-04-15T21:25:56.652Z,97413.16
2023-04-15T21:28:24.081Z,97413.59
2023-04-15T21:30:51.522Z,97415.50
2023-04-15T21:33:20.609Z,97418.66
2023-04-15T21:35:48.205Z,97408.69
2023-04-15T21:38:15.711Z,97413.28
2023-04-15T21:40:43.189Z,97425.09
2023-04-15T21:43:10.656Z,97422.38
2023-04-15T21:45:43.527Z,97416.34
2023-04-15T21:48:32.322Z,97424.44
2023-04-15T21:51:00.165Z,97427.13
2023-04-15T21:53:27.873Z,97426.53
2023-04-15T21:55:55.454Z,97430.03
2023-04-15T21:58:22.840Z,97433.53
2023-04-15T22:00:51.432Z,97435.56
2023-04-15T22:03:19.008Z,97428.13
2023-04-15T22:05:47.976Z,97436.16
2023-04-15T22:08:15.383Z,97440.91
2023-04-15T22:10:42.727Z,97444.88
2023-04-15T22:13:11.106Z,97440.91
2023-04-15T22:15:38.785Z,97448.63
2023-04-15T22:18:06.524Z,97436.94
2023-04-15T22:20:34.027Z,97446.06
2023-04-15T22:23:07.562Z,97444.00
2023-04-15T22:25:36.965Z,97444.19
2023-04-15T22:28:06.926Z,97446.06
2023-04-15T22:30:38.213Z,97458.72
2023-04-15T22:33:06.456Z,97455.00
2023-04-15T22:35:37.384Z,97454.16
2023-04-15T22:38:06.408Z,97459.53
2023-04-15T22:40:33.806Z,97464.56
2023-04-15T22:43:01.353Z,97466.44
2023-04-15T22:45:28.721Z,97464.09
2023-04-15T22:47:56.278Z,97463.28
2023-04-15T22:50:23.815Z,97467.81
2023-04-15T22:52:51.484Z,97465.13
2023-04-15T22:55:20.703Z,97463.00
2023-04-15T22:57:48.123Z,97470.53
2023-04-15T23:00:15.503Z,97466.81
2023-04-15T23:02:43.008Z,97463.28
2023-04-15T23:05:12.436Z,97465.78
2023-04-15T23:07:40.695Z,97469.31
2023-04-15T23:10:09.138Z,97472.69
2023-04-15T23:12:37.880Z,97474.97
2023-04-15T23:15:06.197Z,97470.59
2023-04-15T23:17:34.828Z,97479.53
2023-04-15T23:20:02.237Z,97474.56
2023-04-15T23:22:29.631Z,97476.72
2023-04-15T23:24:56.990Z,97474.38
2023-04-15T23:27:24.397Z,97473.72
2023-04-15T23:29:53.129Z,97469.56
2023-04-15T23:32:20.806Z,97487.03
2023-04-15T23:34:48.279Z,97478.38
2023-04-15T23:37:17.550Z,97486.28
2023-04-15T23:39:45.470Z,97482.56
2023-04-15T23:42:12.897Z,97488.59
2023-04-15T23:44:40.368Z,97485.06
2023-04-15T23:47:10.373Z,97492.94
2023-04-15T23:49:37.804Z,97496.13
2023-04-15T23:52:05.718Z,97485.75
2023-04-15T23:54:33.250Z,97491.81
2023-04-15T23:57:00.819Z,97490.56
2023-04-15T23:59:28.278Z,97488.72
